Terminal Aerodrome Forecast
Issued by NWS

Home | Current Version | Previous Version | Text Only | Print | Product List | Glossary On
Versions: 1 2 3 4 5 6 7 8 9 10 11 12 13
000
FTUS46 KSEW 240520
TAFBLI
TAF
KBLI 240520Z 2406/2506 18008G18KT P6SM SCT035 BKN070
      TEMPO 2413/2416 BKN020 BKN070
     FM241800 17011KT P6SM SCT040 BKN200
     FM250300 18005KT P6SM SCT040 BKN200=

USA.gov is the U.S. government's official web portal to all federal, state and local government web resources and services.